sensor_id;sensor_type;location;lat;lon;timestamp;temperature;humidity
24614;DHT22;12760;46.296;25.290;2023-07-29T00:00:52;17.80;99.90
24614;DHT22;12760;46.296;25.290;2023-07-29T00:03:18;17.70;99.90
24614;DHT22;12760;46.296;25.290;2023-07-29T00:05:44;17.70;99.90
24614;DHT22;12760;46.296;25.290;2023-07-29T00:08:10;17.60;99.90
24614;DHT22;12760;46.296;25.290;2023-07-29T00:10:37;17.70;99.90
24614;DHT22;12760;46.296;25.290;2023-07-29T00:13:03;17.80;99.90
24614;DHT22;12760;46.296;25.290;2023-07-29T00:15:29;17.70;99.90
24614;DHT22;12760;46.296;25.290;2023-07-29T00:17:55;17.60;99.90
24614;DHT22;12760;46.296;25.290;2023-07-29T00:20:20;17.60;99.90
24614;DHT22;12760;46.296;25.290;2023-07-29T00:22:46;17.60;99.90
24614;DHT22;12760;46.296;25.290;2023-07-29T00:25:15;17.50;99.90
24614;DHT22;12760;46.296;25.290;2023-07-29T00:27:41;17.60;99.90
24614;DHT22;12760;46.296;25.290;2023-07-29T00:30:07;17.50;99.90
24614;DHT22;12760;46.296;25.290;2023-07-29T00:32:34;17.60;99.90
24614;DHT22;12760;46.296;25.290;2023-07-29T00:35:00;17.60;99.90
24614;DHT22;12760;46.296;25.290;2023-07-29T00:37:27;17.60;99.90
24614;DHT22;12760;46.296;25.290;2023-07-29T00:39:53;17.60;99.90
24614;DHT22;12760;46.296;25.290;2023-07-29T00:42:19;17.60;99.90
24614;DHT22;12760;46.296;25.290;2023-07-29T00:44:44;17.60;99.90
24614;DHT22;12760;46.296;25.290;2023-07-29T00:47:11;17.50;99.90
24614;DHT22;12760;46.296;25.290;2023-07-29T00:49:38;17.40;99.90
24614;DHT22;12760;46.296;25.290;2023-07-29T00:52:04;17.40;99.90
24614;DHT22;12760;46.296;25.290;2023-07-29T00:54:30;17.30;99.90
24614;DHT22;12760;46.296;25.290;2023-07-29T00:56:56;17.20;99.90
24614;DHT22;12760;46.296;25.290;2023-07-29T00:59:22;17.30;99.90
24614;DHT22;12760;46.296;25.290;2023-07-29T01:01:48;17.40;99.90
24614;DHT22;12760;46.296;25.290;2023-07-29T01:04:14;17.20;99.90
24614;DHT22;12760;46.296;25.290;2023-07-29T01:06:58;17.10;99.90
24614;DHT22;12760;46.296;25.290;2023-07-29T01:12:23;17.20;99.90
24614;DHT22;12760;46.296;25.290;2023-07-29T01:15:15;17.10;99.90
24614;DHT22;12760;46.296;25.290;2023-07-29T01:18:08;17.10;99.90
24614;DHT22;12760;46.296;25.290;2023-07-29T01:20:38;17.10;99.90
24614;DHT22;12760;46.296;25.290;2023-07-29T01:23:05;17.10;99.90
24614;DHT22;12760;46.296;25.290;2023-07-29T01:25:31;17.10;99.90
24614;DHT22;12760;46.296;25.290;2023-07-29T01:27:57;17.10;99.90
24614;DHT22;12760;46.296;25.290;2023-07-29T01:30:29;17.10;99.90
24614;DHT22;12760;46.296;25.290;2023-07-29T01:33:14;17.20;99.90
24614;DHT22;12760;46.296;25.290;2023-07-29T01:35:47;17.20;99.90
24614;DHT22;12760;46.296;25.290;2023-07-29T01:38:18;17.00;99.90
24614;DHT22;12760;46.296;25.290;2023-07-29T01:40:48;16.90;99.90
24614;DHT22;12760;46.296;25.290;2023-07-29T01:43:14;16.80;99.90
24614;DHT22;12760;46.296;25.290;2023-07-29T01:45:40;16.80;99.90
24614;DHT22;12760;46.296;25.290;2023-07-29T01:48:06;16.80;99.90
24614;DHT22;12760;46.296;25.290;2023-07-29T01:50:33;16.90;99.90
24614;DHT22;12760;46.296;25.290;2023-07-29T01:52:59;16.90;99.90
24614;DHT22;12760;46.296;25.290;2023-07-29T01:55:25;16.90;99.90
24614;DHT22;12760;46.296;25.290;2023-07-29T01:57:51;16.80;99.90
24614;DHT22;12760;46.296;25.290;2023-07-29T02:00:19;16.80;99.90
24614;DHT22;12760;46.296;25.290;2023-07-29T02:02:45;16.90;99.90
24614;DHT22;12760;46.296;25.290;2023-07-29T02:05:11;16.90;99.90
24614;DHT22;12760;46.296;25.290;2023-07-29T02:07:36;16.90;99.90
24614;DHT22;12760;46.296;25.290;2023-07-29T02:10:02;16.90;99.90
24614;DHT22;12760;46.296;25.290;2023-07-29T02:12:28;17.00;99.90
24614;DHT22;12760;46.296;25.290;2023-07-29T02:14:54;16.80;99.90
24614;DHT22;12760;46.296;25.290;2023-07-29T02:17:19;16.80;99.90
24614;DHT22;12760;46.296;25.290;2023-07-29T02:19:46;16.80;99.90
24614;DHT22;12760;46.296;25.290;2023-07-29T02:22:17;16.70;99.90
24614;DHT22;12760;46.296;25.290;2023-07-29T02:24:43;16.70;99.90
24614;DHT22;12760;46.296;25.290;2023-07-29T02:27:09;16.60;99.90
24614;DHT22;12760;46.296;25.290;2023-07-29T02:29:34;16.60;99.90
24614;DHT22;12760;46.296;25.290;2023-07-29T02:32:00;16.60;99.90
24614;DHT22;12760;46.296;25.290;2023-07-29T02:34:26;16.60;99.90
24614;DHT22;12760;46.296;25.290;2023-07-29T02:36:52;16.60;99.90
24614;DHT22;12760;46.296;25.290;2023-07-29T02:39:17;16.60;99.90
24614;DHT22;12760;46.296;25.290;2023-07-29T02:41:43;16.60;99.90
24614;DHT22;12760;46.296;25.290;2023-07-29T02:44:09;16.70;99.90
24614;DHT22;12760;46.296;25.290;2023-07-29T02:46:34;16.70;99.90
24614;DHT22;12760;46.296;25.290;2023-07-29T02:49:02;16.60;99.90
24614;DHT22;12760;46.296;25.290;2023-07-29T02:51:28;16.60;99.90
24614;DHT22;12760;46.296;25.290;2023-07-29T02:53:54;16.60;99.90
24614;DHT22;12760;46.296;25.290;2023-07-29T02:56:19;16.60;99.90
24614;DHT22;12760;46.296;25.290;2023-07-29T02:58:45;16.70;99.90
24614;DHT22;12760;46.296;25.290;2023-07-29T03:01:11;16.70;99.90
24614;DHT22;12760;46.296;25.290;2023-07-29T03:03:37;16.80;99.90
24614;DHT22;12760;46.296;25.290;2023-07-29T03:06:04;16.80;99.90
24614;DHT22;12760;46.296;25.290;2023-07-29T03:08:30;16.80;99.90
24614;DHT22;12760;46.296;25.290;2023-07-29T03:10:56;16.80;99.90
24614;DHT22;12760;46.296;25.290;2023-07-29T03:13:22;16.90;99.90
24614;DHT22;12760;46.296;25.290;2023-07-29T03:15:48;16.90;99.90
24614;DHT22;12760;46.296;25.290;2023-07-29T03:18:15;16.90;99.90
24614;DHT22;12760;46.296;25.290;2023-07-29T03:20:40;16.90;99.90
24614;DHT22;12760;46.296;25.290;2023-07-29T03:23:06;16.90;99.90
24614;DHT22;12760;46.296;25.290;2023-07-29T03:25:32;16.80;99.90
24614;DHT22;12760;46.296;25.290;2023-07-29T03:27:58;16.80;99.90
24614;DHT22;12760;46.296;25.290;2023-07-29T03:30:24;16.80;99.90
24614;DHT22;12760;46.296;25.290;2023-07-29T03:32:50;16.70;99.90
24614;DHT22;12760;46.296;25.290;2023-07-29T03:35:16;16.60;99.90
24614;DHT22;12760;46.296;25.290;2023-07-29T03:37:42;16.70;99.90
24614;DHT22;12760;46.296;25.290;2023-07-29T03:40:08;16.70;99.90
24614;DHT22;12760;46.296;25.290;2023-07-29T03:42:37;16.70;99.90
24614;DHT22;12760;46.296;25.290;2023-07-29T03:45:03;16.70;99.90
24614;DHT22;12760;46.296;25.290;2023-07-29T03:47:29;16.70;99.90
24614;DHT22;12760;46.296;25.290;2023-07-29T03:49:55;16.70;99.90
24614;DHT22;12760;46.296;25.290;2023-07-29T03:52:20;16.70;99.90
24614;DHT22;12760;46.296;25.290;2023-07-29T03:54:46;16.60;99.90
24614;DHT22;12760;46.296;25.290;2023-07-29T03:57:12;16.70;99.90
24614;DHT22;12760;46.296;25.290;2023-07-29T03:59:37;16.80;99.90
24614;DHT22;12760;46.296;25.290;2023-07-29T04:02:04;16.80;99.90
24614;DHT22;12760;46.296;25.290;2023-07-29T04:04:29;16.90;99.90
24614;DHT22;12760;46.296;25.290;2023-07-29T04:06:55;16.90;99.90
24614;DHT22;12760;46.296;25.290;2023-07-29T04:09:21;17.00;99.90
24614;DHT22;12760;46.296;25.290;2023-07-29T04:11:47;17.00;99.90
24614;DHT22;12760;46.296;25.290;2023-07-29T04:14:12;17.00;99.90
24614;DHT22;12760;46.296;25.290;2023-07-29T04:16:38;17.10;99.90
24614;DHT22;12760;46.296;25.290;2023-07-29T04:19:04;17.20;99.90
24614;DHT22;12760;46.296;25.290;2023-07-29T04:21:29;17.20;99.90
24614;DHT22;12760;46.296;25.290;2023-07-29T04:23:55;17.30;99.90
24614;DHT22;12760;46.296;25.290;2023-07-29T04:26:21;17.40;99.90
24614;DHT22;12760;46.296;25.290;2023-07-29T04:28:46;17.40;99.90
24614;DHT22;12760;46.296;25.290;2023-07-29T04:31:12;17.50;99.90
24614;DHT22;12760;46.296;25.290;2023-07-29T04:33:38;17.50;99.90
24614;DHT22;12760;46.296;25.290;2023-07-29T04:36:04;17.50;99.90
24614;DHT22;12760;46.296;25.290;2023-07-29T04:38:33;17.60;99.90
24614;DHT22;12760;46.296;25.290;2023-07-29T04:40:59;17.60;99.90
24614;DHT22;12760;46.296;25.290;2023-07-29T04:43:31;17.60;99.90
24614;DHT22;12760;46.296;25.290;2023-07-29T04:45:57;17.60;99.90
24614;DHT22;12760;46.296;25.290;2023-07-29T04:48:23;17.50;99.90
24614;DHT22;12760;46.296;25.290;2023-07-29T04:50:49;17.60;99.90
24614;DHT22;12760;46.296;25.290;2023-07-29T04:53:14;17.50;99.90
24614;DHT22;12760;46.296;25.290;2023-07-29T04:55:43;17.60;99.90
24614;DHT22;12760;46.296;25.290;2023-07-29T04:58:09;17.70;99.90
24614;DHT22;12760;46.296;25.290;2023-07-29T05:00:35;17.70;99.90
24614;DHT22;12760;46.296;25.290;2023-07-29T05:03:01;17.80;99.90
24614;DHT22;12760;46.296;25.290;2023-07-29T05:05:27;17.80;99.90
24614;DHT22;12760;46.296;25.290;2023-07-29T05:07:53;17.90;99.90
24614;DHT22;12760;46.296;25.290;2023-07-29T05:10:18;18.00;99.90
24614;DHT22;12760;46.296;25.290;2023-07-29T05:12:44;18.00;99.90
24614;DHT22;12760;46.296;25.290;2023-07-29T05:15:10;18.10;99.90
24614;DHT22;12760;46.296;25.290;2023-07-29T05:17:36;18.10;99.90
24614;DHT22;12760;46.296;25.290;2023-07-29T05:20:02;18.10;99.90
24614;DHT22;12760;46.296;25.290;2023-07-29T05:22:28;18.20;99.90
24614;DHT22;12760;46.296;25.290;2023-07-29T05:24:54;18.20;99.90
24614;DHT22;12760;46.296;25.290;2023-07-29T05:27:19;18.10;99.90
24614;DHT22;12760;46.296;25.290;2023-07-29T05:29:45;18.10;99.90
24614;DHT22;12760;46.296;25.290;2023-07-29T05:32:10;18.00;99.90
24614;DHT22;12760;46.296;25.290;2023-07-29T05:34:37;18.10;99.90
24614;DHT22;12760;46.296;25.290;2023-07-29T05:37:03;18.10;99.90
24614;DHT22;12760;46.296;25.290;2023-07-29T05:39:30;18.20;99.90
24614;DHT22;12760;46.296;25.290;2023-07-29T05:41:57;18.40;99.90
24614;DHT22;12760;46.296;25.290;2023-07-29T05:44:23;18.50;99.90
24614;DHT22;12760;46.296;25.290;2023-07-29T05:46:49;18.60;99.90
24614;DHT22;12760;46.296;25.290;2023-07-29T05:49:14;18.70;99.90
24614;DHT22;12760;46.296;25.290;2023-07-29T05:51:40;18.80;99.90
24614;DHT22;12760;46.296;25.290;2023-07-29T05:54:06;18.90;99.90
24614;DHT22;12760;46.296;25.290;2023-07-29T05:56:31;19.00;99.90
24614;DHT22;12760;46.296;25.290;2023-07-29T05:58:57;19.10;99.90
24614;DHT22;12760;46.296;25.290;2023-07-29T06:01:23;19.10;99.90
24614;DHT22;12760;46.296;25.290;2023-07-29T06:03:49;19.20;99.90
24614;DHT22;12760;46.296;25.290;2023-07-29T06:06:15;19.20;99.90
24614;DHT22;12760;46.296;25.290;2023-07-29T06:08:41;19.20;99.90
24614;DHT22;12760;46.296;25.290;2023-07-29T06:11:06;19.30;99.90
24614;DHT22;12760;46.296;25.290;2023-07-29T06:13:32;19.40;99.90
24614;DHT22;12760;46.296;25.290;2023-07-29T06:15:58;19.50;99.90
24614;DHT22;12760;46.296;25.290;2023-07-29T06:18:24;19.50;99.90
24614;DHT22;12760;46.296;25.290;2023-07-29T06:20:50;19.50;99.90
24614;DHT22;12760;46.296;25.290;2023-07-29T06:23:16;19.60;99.90
24614;DHT22;12760;46.296;25.290;2023-07-29T06:25:42;19.60;99.90
24614;DHT22;12760;46.296;25.290;2023-07-29T06:28:09;19.60;99.90
24614;DHT22;12760;46.296;25.290;2023-07-29T06:30:35;19.60;99.90
24614;DHT22;12760;46.296;25.290;2023-07-29T06:33:01;19.70;99.90
24614;DHT22;12760;46.296;25.290;2023-07-29T06:35:28;19.80;99.90
24614;DHT22;12760;46.296;25.290;2023-07-29T06:37:54;19.90;99.90
24614;DHT22;12760;46.296;25.290;2023-07-29T06:40:20;19.90;99.90
24614;DHT22;12760;46.296;25.290;2023-07-29T06:42:45;20.00;99.90
24614;DHT22;12760;46.296;25.290;2023-07-29T06:45:11;20.10;99.90
24614;DHT22;12760;46.296;25.290;2023-07-29T06:47:37;20.20;99.90
24614;DHT22;12760;46.296;25.290;2023-07-29T06:50:03;20.30;99.90
24614;DHT22;12760;46.296;25.290;2023-07-29T06:52:29;20.40;99.90
24614;DHT22;12760;46.296;25.290;2023-07-29T06:54:55;20.70;99.90
24614;DHT22;12760;46.296;25.290;2023-07-29T06:57:21;21.00;99.90
24614;DHT22;12760;46.296;25.290;2023-07-29T06:59:46;21.20;99.90
24614;DHT22;12760;46.296;25.290;2023-07-29T07:02:12;21.10;99.90
24614;DHT22;12760;46.296;25.290;2023-07-29T07:04:38;21.20;99.90
24614;DHT22;12760;46.296;25.290;2023-07-29T07:07:04;21.50;99.90
24614;DHT22;12760;46.296;25.290;2023-07-29T07:09:30;21.70;99.90
24614;DHT22;12760;46.296;25.290;2023-07-29T07:11:56;22.00;99.90
24614;DHT22;12760;46.296;25.290;2023-07-29T07:14:21;22.20;99.90
24614;DHT22;12760;46.296;25.290;2023-07-29T07:16:47;22.30;99.90
24614;DHT22;12760;46.296;25.290;2023-07-29T07:19:13;22.60;99.90
24614;DHT22;12760;46.296;25.290;2023-07-29T07:21:39;22.70;99.90
24614;DHT22;12760;46.296;25.290;2023-07-29T07:24:04;22.90;99.90
24614;DHT22;12760;46.296;25.290;2023-07-29T07:26:30;23.20;99.90
24614;DHT22;12760;46.296;25.290;2023-07-29T07:28:56;23.30;99.90
24614;DHT22;12760;46.296;25.290;2023-07-29T07:31:22;23.50;99.90
24614;DHT22;12760;46.296;25.290;2023-07-29T07:33:48;23.80;99.90
24614;DHT22;12760;46.296;25.290;2023-07-29T07:36:14;24.00;99.90
24614;DHT22;12760;46.296;25.290;2023-07-29T07:38:39;24.20;99.90
24614;DHT22;12760;46.296;25.290;2023-07-29T07:41:05;24.50;99.90
24614;DHT22;12760;46.296;25.290;2023-07-29T07:43:31;24.60;99.90
24614;DHT22;12760;46.296;25.290;2023-07-29T07:46:01;24.80;99.90
24614;DHT22;12760;46.296;25.290;2023-07-29T07:48:27;24.90;99.90
24614;DHT22;12760;46.296;25.290;2023-07-29T07:50:53;25.20;99.90
24614;DHT22;12760;46.296;25.290;2023-07-29T07:53:19;25.40;99.90
24614;DHT22;12760;46.296;25.290;2023-07-29T07:55:46;25.50;99.90
24614;DHT22;12760;46.296;25.290;2023-07-29T07:58:12;25.30;99.90
24614;DHT22;12760;46.296;25.290;2023-07-29T08:00:37;25.50;99.90
24614;DHT22;12760;46.296;25.290;2023-07-29T08:03:03;25.60;99.90
24614;DHT22;12760;46.296;25.290;2023-07-29T08:05:29;25.70;99.90
24614;DHT22;12760;46.296;25.290;2023-07-29T08:07:55;25.80;99.90
24614;DHT22;12760;46.296;25.290;2023-07-29T08:10:21;25.70;99.90
24614;DHT22;12760;46.296;25.290;2023-07-29T08:12:47;25.70;99.90
24614;DHT22;12760;46.296;25.290;2023-07-29T08:15:12;25.80;99.90
24614;DHT22;12760;46.296;25.290;2023-07-29T08:17:38;25.90;99.90
24614;DHT22;12760;46.296;25.290;2023-07-29T08:20:04;26.10;99.90
24614;DHT22;12760;46.296;25.290;2023-07-29T08:22:30;26.50;99.90
24614;DHT22;12760;46.296;25.290;2023-07-29T08:24:56;26.60;99.90
24614;DHT22;12760;46.296;25.290;2023-07-29T08:27:21;26.70;99.90
24614;DHT22;12760;46.296;25.290;2023-07-29T08:29:47;26.90;99.90
24614;DHT22;12760;46.296;25.290;2023-07-29T08:32:13;26.90;99.90
24614;DHT22;12760;46.296;25.290;2023-07-29T08:34:39;26.90;99.90
24614;DHT22;12760;46.296;25.290;2023-07-29T08:37:05;27.10;99.90
24614;DHT22;12760;46.296;25.290;2023-07-29T08:39:31;27.20;99.90
24614;DHT22;12760;46.296;25.290;2023-07-29T08:42:04;27.30;99.90
24614;DHT22;12760;46.296;25.290;2023-07-29T08:44:39;27.20;99.90
24614;DHT22;12760;46.296;25.290;2023-07-29T08:47:06;27.30;99.90
24614;DHT22;12760;46.296;25.290;2023-07-29T08:49:32;27.30;99.90
24614;DHT22;12760;46.296;25.290;2023-07-29T08:51:58;27.20;99.90
24614;DHT22;12760;46.296;25.290;2023-07-29T08:54:25;26.90;99.90
24614;DHT22;12760;46.296;25.290;2023-07-29T08:56:50;26.70;99.90
24614;DHT22;12760;46.296;25.290;2023-07-29T08:59:17;26.80;99.90
24614;DHT22;12760;46.296;25.290;2023-07-29T09:01:43;26.90;99.90
24614;DHT22;12760;46.296;25.290;2023-07-29T09:04:09;26.80;99.90
24614;DHT22;12760;46.296;25.290;2023-07-29T09:06:35;26.60;99.90
24614;DHT22;12760;46.296;25.290;2023-07-29T09:09:03;26.70;99.90
24614;DHT22;12760;46.296;25.290;2023-07-29T09:11:29;26.70;99.90
24614;DHT22;12760;46.296;25.290;2023-07-29T09:13:56;26.70;99.90
24614;DHT22;12760;46.296;25.290;2023-07-29T09:16:22;26.70;99.90
24614;DHT22;12760;46.296;25.290;2023-07-29T09:18:51;26.80;99.90
24614;DHT22;12760;46.296;25.290;2023-07-29T09:21:27;27.00;99.90
24614;DHT22;12760;46.296;25.290;2023-07-29T09:23:54;27.30;99.90
24614;DHT22;12760;46.296;25.290;2023-07-29T09:26:24;27.50;99.90
24614;DHT22;12760;46.296;25.290;2023-07-29T09:28:58;27.70;99.90
24614;DHT22;12760;46.296;25.290;2023-07-29T09:31:26;27.70;99.90
24614;DHT22;12760;46.296;25.290;2023-07-29T09:34:00;27.50;99.90
24614;DHT22;12760;46.296;25.290;2023-07-29T09:36:27;27.40;99.90
24614;DHT22;12760;46.296;25.290;2023-07-29T09:38:53;27.50;99.90
24614;DHT22;12760;46.296;25.290;2023-07-29T09:41:27;27.50;99.90
24614;DHT22;12760;46.296;25.290;2023-07-29T09:43:58;27.70;99.90
24614;DHT22;12760;46.296;25.290;2023-07-29T09:46:25;27.80;99.90
24614;DHT22;12760;46.296;25.290;2023-07-29T09:48:57;27.80;99.90
24614;DHT22;12760;46.296;25.290;2023-07-29T09:51:23;28.00;99.90
24614;DHT22;12760;46.296;25.290;2023-07-29T09:53:50;28.00;99.90
24614;DHT22;12760;46.296;25.290;2023-07-29T09:56:16;28.10;99.90
24614;DHT22;12760;46.296;25.290;2023-07-29T09:58:46;28.00;99.90
24614;DHT22;12760;46.296;25.290;2023-07-29T10:01:13;28.00;99.90
24614;DHT22;12760;46.296;25.290;2023-07-29T10:03:40;28.00;99.90
24614;DHT22;12760;46.296;25.290;2023-07-29T10:06:07;28.00;99.60
24614;DHT22;12760;46.296;25.290;2023-07-29T10:08:33;28.00;99.00
24614;DHT22;12760;46.296;25.290;2023-07-29T10:11:10;28.00;98.90
24614;DHT22;12760;46.296;25.290;2023-07-29T10:13:36;28.20;99.60
24614;DHT22;12760;46.296;25.290;2023-07-29T10:16:03;28.40;99.20
24614;DHT22;12760;46.296;25.290;2023-07-29T10:18:30;28.60;99.60
24614;DHT22;12760;46.296;25.290;2023-07-29T10:21:00;28.70;98.60
24614;DHT22;12760;46.296;25.290;2023-07-29T10:23:27;28.80;98.50
24614;DHT22;12760;46.296;25.290;2023-07-29T10:28:25;28.70;99.30
24614;DHT22;12760;46.296;25.290;2023-07-29T10:30:52;28.70;97.90
24614;DHT22;12760;46.296;25.290;2023-07-29T10:33:17;28.70;99.30
24614;DHT22;12760;46.296;25.290;2023-07-29T10:35:43;28.90;99.10
24614;DHT22;12760;46.296;25.290;2023-07-29T10:38:09;29.00;98.80
24614;DHT22;12760;46.296;25.290;2023-07-29T10:40:56;29.10;98.10
24614;DHT22;12760;46.296;25.290;2023-07-29T10:43:32;29.20;98.60
24614;DHT22;12760;46.296;25.290;2023-07-29T10:46:18;29.20;98.10
24614;DHT22;12760;46.296;25.290;2023-07-29T10:48:55;29.20;98.40
24614;DHT22;12760;46.296;25.290;2023-07-29T10:51:37;29.30;98.30
24614;DHT22;12760;46.296;25.290;2023-07-29T10:54:09;29.30;98.90
24614;DHT22;12760;46.296;25.290;2023-07-29T10:56:40;29.20;98.50
24614;DHT22;12760;46.296;25.290;2023-07-29T11:01:42;28.90;97.30
24614;DHT22;12760;46.296;25.290;2023-07-29T11:15:18;29.30;98.70
24614;DHT22;12760;46.296;25.290;2023-07-29T11:17:56;29.50;98.40
24614;DHT22;12760;46.296;25.290;2023-07-29T11:20:32;29.70;98.30
24614;DHT22;12760;46.296;25.290;2023-07-29T11:23:00;29.70;98.00
24614;DHT22;12760;46.296;25.290;2023-07-29T11:25:28;29.70;98.00
24614;DHT22;12760;46.296;25.290;2023-07-29T11:27:56;29.80;97.30
24614;DHT22;12760;46.296;25.290;2023-07-29T11:30:22;29.80;97.90
24614;DHT22;12760;46.296;25.290;2023-07-29T11:32:59;29.80;97.80
24614;DHT22;12760;46.296;25.290;2023-07-29T11:35:25;29.80;97.90
24614;DHT22;12760;46.296;25.290;2023-07-29T11:37:53;29.90;97.40
24614;DHT22;12760;46.296;25.290;2023-07-29T11:40:21;29.90;97.40
24614;DHT22;12760;46.296;25.290;2023-07-29T11:42:48;29.80;96.80
24614;DHT22;12760;46.296;25.290;2023-07-29T11:45:16;29.90;96.90
24614;DHT22;12760;46.296;25.290;2023-07-29T11:47:41;30.10;97.10
24614;DHT22;12760;46.296;25.290;2023-07-29T11:50:09;30.00;95.90
24614;DHT22;12760;46.296;25.290;2023-07-29T11:52:37;30.10;97.00
24614;DHT22;12760;46.296;25.290;2023-07-29T11:55:04;30.00;96.70
24614;DHT22;12760;46.296;25.290;2023-07-29T11:57:31;30.00;97.10
24614;DHT22;12760;46.296;25.290;2023-07-29T11:59:57;30.00;97.30
24614;DHT22;12760;46.296;25.290;2023-07-29T12:02:24;30.10;97.00
24614;DHT22;12760;46.296;25.290;2023-07-29T12:04:51;30.10;97.20
24614;DHT22;12760;46.296;25.290;2023-07-29T12:07:18;30.20;96.90
24614;DHT22;12760;46.296;25.290;2023-07-29T12:09:45;30.10;96.60
24614;DHT22;12760;46.296;25.290;2023-07-29T12:12:11;30.20;97.10
24614;DHT22;12760;46.296;25.290;2023-07-29T12:14:37;30.20;96.00
24614;DHT22;12760;46.296;25.290;2023-07-29T12:17:05;30.20;96.10
24614;DHT22;12760;46.296;25.290;2023-07-29T12:19:35;30.20;95.10
24614;DHT22;12760;46.296;25.290;2023-07-29T12:22:03;30.00;96.10
24614;DHT22;12760;46.296;25.290;2023-07-29T12:24:33;30.00;96.70
24614;DHT22;12760;46.296;25.290;2023-07-29T12:27:00;30.10;97.10
24614;DHT22;12760;46.296;25.290;2023-07-29T12:29:26;30.20;97.30
24614;DHT22;12760;46.296;25.290;2023-07-29T12:32:02;30.20;97.00
24614;DHT22;12760;46.296;25.290;2023-07-29T12:34:29;30.20;96.50
24614;DHT22;12760;46.296;25.290;2023-07-29T12:36:56;30.10;96.70
24614;DHT22;12760;46.296;25.290;2023-07-29T12:39:26;29.80;96.00
24614;DHT22;12760;46.296;25.290;2023-07-29T12:41:54;29.80;96.60
24614;DHT22;12760;46.296;25.290;2023-07-29T12:44:20;29.70;96.30
24614;DHT22;12760;46.296;25.290;2023-07-29T12:46:46;29.60;96.90
24614;DHT22;12760;46.296;25.290;2023-07-29T12:49:12;29.70;96.50
24614;DHT22;12760;46.296;25.290;2023-07-29T12:51:37;29.80;96.10
24614;DHT22;12760;46.296;25.290;2023-07-29T12:54:04;29.80;97.10
24614;DHT22;12760;46.296;25.290;2023-07-29T12:56:31;29.90;96.20
24614;DHT22;12760;46.296;25.290;2023-07-29T12:58:58;29.90;96.10
24614;DHT22;12760;46.296;25.290;2023-07-29T13:01:27;29.90;95.30
24614;DHT22;12760;46.296;25.290;2023-07-29T13:03:54;29.80;95.80
24614;DHT22;12760;46.296;25.290;2023-07-29T13:06:20;29.80;96.50
24614;DHT22;12760;46.296;25.290;2023-07-29T13:08:48;29.90;96.70
24614;DHT22;12760;46.296;25.290;2023-07-29T13:11:15;29.90;96.10
24614;DHT22;12760;46.296;25.290;2023-07-29T13:13:40;30.00;96.00
24614;DHT22;12760;46.296;25.290;2023-07-29T13:16:06;30.00;96.10
24614;DHT22;12760;46.296;25.290;2023-07-29T13:18:32;29.90;96.30
24614;DHT22;12760;46.296;25.290;2023-07-29T13:20:58;30.00;96.70
24614;DHT22;12760;46.296;25.290;2023-07-29T13:23:26;30.00;95.80
24614;DHT22;12760;46.296;25.290;2023-07-29T13:25:52;30.10;95.00
24614;DHT22;12760;46.296;25.290;2023-07-29T13:28:18;30.00;94.80
24614;DHT22;12760;46.296;25.290;2023-07-29T13:30:44;30.00;94.50
24614;DHT22;12760;46.296;25.290;2023-07-29T13:33:10;30.00;95.00
24614;DHT22;12760;46.296;25.290;2023-07-29T13:35:36;29.90;94.60
24614;DHT22;12760;46.296;25.290;2023-07-29T13:38:02;29.90;95.00
24614;DHT22;12760;46.296;25.290;2023-07-29T13:40:28;29.90;95.20
24614;DHT22;12760;46.296;25.290;2023-07-29T13:42:54;29.80;95.40
24614;DHT22;12760;46.296;25.290;2023-07-29T13:45:20;29.80;95.40
24614;DHT22;12760;46.296;25.290;2023-07-29T13:47:46;29.80;95.70
24614;DHT22;12760;46.296;25.290;2023-07-29T13:50:11;30.00;95.80
24614;DHT22;12760;46.296;25.290;2023-07-29T13:52:37;30.00;95.10
24614;DHT22;12760;46.296;25.290;2023-07-29T13:55:04;30.00;94.80
24614;DHT22;12760;46.296;25.290;2023-07-29T13:57:31;30.00;94.80
24614;DHT22;12760;46.296;25.290;2023-07-29T13:59:56;30.00;95.70
24614;DHT22;12760;46.296;25.290;2023-07-29T14:02:22;29.90;95.30
24614;DHT22;12760;46.296;25.290;2023-07-29T14:04:48;29.80;95.20
24614;DHT22;12760;46.296;25.290;2023-07-29T14:07:13;29.70;95.20
24614;DHT22;12760;46.296;25.290;2023-07-29T14:09:39;29.70;95.80
24614;DHT22;12760;46.296;25.290;2023-07-29T14:12:06;29.70;95.50
24614;DHT22;12760;46.296;25.290;2023-07-29T14:14:32;29.60;96.20
24614;DHT22;12760;46.296;25.290;2023-07-29T14:16:57;29.60;96.70
24614;DHT22;12760;46.296;25.290;2023-07-29T14:19:23;29.60;96.70
24614;DHT22;12760;46.296;25.290;2023-07-29T14:21:49;29.70;96.30
24614;DHT22;12760;46.296;25.290;2023-07-29T14:24:15;29.60;96.70
24614;DHT22;12760;46.296;25.290;2023-07-29T14:26:42;29.70;97.00
24614;DHT22;12760;46.296;25.290;2023-07-29T14:29:07;29.70;97.10
24614;DHT22;12760;46.296;25.290;2023-07-29T14:31:33;29.80;97.30
24614;DHT22;12760;46.296;25.290;2023-07-29T14:33:59;29.80;97.30
24614;DHT22;12760;46.296;25.290;2023-07-29T14:36:25;29.80;97.20
24614;DHT22;12760;46.296;25.290;2023-07-29T14:38:51;29.80;96.90
24614;DHT22;12760;46.296;25.290;2023-07-29T14:41:17;29.70;96.60
24614;DHT22;12760;46.296;25.290;2023-07-29T14:43:43;29.70;96.60
24614;DHT22;12760;46.296;25.290;2023-07-29T14:46:09;29.70;97.40
24614;DHT22;12760;46.296;25.290;2023-07-29T14:48:34;29.70;96.80
24614;DHT22;12760;46.296;25.290;2023-07-29T14:51:00;29.70;96.80
24614;DHT22;12760;46.296;25.290;2023-07-29T14:53:26;29.50;96.80
24614;DHT22;12760;46.296;25.290;2023-07-29T14:55:51;29.50;96.40
24614;DHT22;12760;46.296;25.290;2023-07-29T14:58:17;29.40;97.00
24614;DHT22;12760;46.296;25.290;2023-07-29T15:00:43;29.30;96.90
24614;DHT22;12760;46.296;25.290;2023-07-29T15:03:08;29.20;97.00
24614;DHT22;12760;46.296;25.290;2023-07-29T15:05:34;29.20;97.30
24614;DHT22;12760;46.296;25.290;2023-07-29T15:08:00;29.20;97.40
24614;DHT22;12760;46.296;25.290;2023-07-29T15:10:26;29.20;97.60
24614;DHT22;12760;46.296;25.290;2023-07-29T15:12:52;29.10;97.60
24614;DHT22;12760;46.296;25.290;2023-07-29T15:15:18;29.10;98.10
24614;DHT22;12760;46.296;25.290;2023-07-29T15:17:44;29.10;98.30
24614;DHT22;12760;46.296;25.290;2023-07-29T15:20:10;29.00;98.20
24614;DHT22;12760;46.296;25.290;2023-07-29T15:22:36;29.00;98.50
24614;DHT22;12760;46.296;25.290;2023-07-29T15:25:02;29.00;97.70
24614;DHT22;12760;46.296;25.290;2023-07-29T15:27:28;28.90;98.10
24614;DHT22;12760;46.296;25.290;2023-07-29T15:29:54;28.80;97.90
24614;DHT22;12760;46.296;25.290;2023-07-29T15:32:20;28.80;97.80